sensor_id;sensor_type;location;lat;lon;timestamp;P1;durP1;ratioP1;P2;durP2;ratioP2
36597;SDS011;22607;49.550;11.940;2023-03-01T00:01:03;21.45;;;9.73;;
36597;SDS011;22607;49.550;11.940;2023-03-01T00:03:33;21.45;;;9.27;;
36597;SDS011;22607;49.550;11.940;2023-03-01T00:06:00;23.95;;;11.57;;
36597;SDS011;22607;49.550;11.940;2023-03-01T00:08:27;22.58;;;10.68;;
36597;SDS011;22607;49.550;11.940;2023-03-01T00:11:08;24.63;;;11.65;;
36597;SDS011;22607;49.550;11.940;2023-03-01T00:13:41;20.05;;;9.52;;
36597;SDS011;22607;49.550;11.940;2023-03-01T00:16:15;22.30;;;10.25;;
36597;SDS011;22607;49.550;11.940;2023-03-01T00:18:46;23.55;;;11.45;;
36597;SDS011;22607;49.550;11.940;2023-03-01T00:21:13;23.23;;;10.20;;
36597;SDS011;22607;49.550;11.940;2023-03-01T00:23:40;21.60;;;10.02;;
36597;SDS011;22607;49.550;11.940;2023-03-01T00:26:09;23.00;;;10.15;;
36597;SDS011;22607;49.550;11.940;2023-03-01T00:28:37;21.90;;;11.35;;
36597;SDS011;22607;49.550;11.940;2023-03-01T00:31:07;22.48;;;12.07;;
36597;SDS011;22607;49.550;11.940;2023-03-01T00:33:45;19.98;;;8.75;;
36597;SDS011;22607;49.550;11.940;2023-03-01T00:36:12;26.92;;;12.73;;
36597;SDS011;22607;49.550;11.940;2023-03-01T00:38:42;26.25;;;10.98;;
36597;SDS011;22607;49.550;11.940;2023-03-01T00:41:12;23.75;;;11.75;;
36597;SDS011;22607;49.550;11.940;2023-03-01T00:43:40;25.63;;;11.80;;
36597;SDS011;22607;49.550;11.940;2023-03-01T00:46:08;21.65;;;9.88;;
36597;SDS011;22607;49.550;11.940;2023-03-01T00:48:38;21.80;;;10.75;;
36597;SDS011;22607;49.550;11.940;2023-03-01T00:51:09;24.25;;;11.20;;
36597;SDS011;22607;49.550;11.940;2023-03-01T00:53:37;25.15;;;11.80;;
36597;SDS011;22607;49.550;11.940;2023-03-01T00:56:05;21.15;;;9.88;;
36597;SDS011;22607;49.550;11.940;2023-03-01T00:58:33;25.48;;;11.38;;
36597;SDS011;22607;49.550;11.940;2023-03-01T01:06:18;22.00;;;10.25;;
36597;SDS011;22607;49.550;11.940;2023-03-01T01:08:47;22.27;;;10.23;;
36597;SDS011;22607;49.550;11.940;2023-03-01T01:11:14;22.60;;;9.88;;
36597;SDS011;22607;49.550;11.940;2023-03-01T01:13:41;23.38;;;10.88;;
36597;SDS011;22607;49.550;11.940;2023-03-01T01:16:11;23.30;;;10.10;;
36597;SDS011;22607;49.550;11.940;2023-03-01T01:18:38;22.00;;;10.35;;
36597;SDS011;22607;49.550;11.940;2023-03-01T01:21:05;22.05;;;11.40;;
36597;SDS011;22607;49.550;11.940;2023-03-01T01:23:33;24.50;;;10.30;;
36597;SDS011;22607;49.550;11.940;2023-03-01T01:26:04;21.10;;;10.40;;
36597;SDS011;22607;49.550;11.940;2023-03-01T01:28:31;21.83;;;9.07;;
36597;SDS011;22607;49.550;11.940;2023-03-01T01:31:00;21.63;;;10.68;;
36597;SDS011;22607;49.550;11.940;2023-03-01T01:33:27;23.92;;;10.70;;
36597;SDS011;22607;49.550;11.940;2023-03-01T01:35:53;23.13;;;11.25;;
36597;SDS011;22607;49.550;11.940;2023-03-01T01:38:21;36.63;;;16.23;;
36597;SDS011;22607;49.550;11.940;2023-03-01T01:40:48;26.17;;;13.20;;
36597;SDS011;22607;49.550;11.940;2023-03-01T01:43:28;23.52;;;11.55;;
36597;SDS011;22607;49.550;11.940;2023-03-01T01:46:25;21.45;;;10.20;;
36597;SDS011;22607;49.550;11.940;2023-03-01T01:49:02;19.80;;;9.70;;
36597;SDS011;22607;49.550;11.940;2023-03-01T01:51:32;22.73;;;10.23;;
36597;SDS011;22607;49.550;11.940;2023-03-01T01:54:10;21.27;;;8.98;;
36597;SDS011;22607;49.550;11.940;2023-03-01T01:56:40;23.83;;;10.07;;
36597;SDS011;22607;49.550;11.940;2023-03-01T01:59:10;23.85;;;10.35;;
36597;SDS011;22607;49.550;11.940;2023-03-01T02:01:38;21.97;;;10.00;;
36597;SDS011;22607;49.550;11.940;2023-03-01T02:04:07;24.15;;;10.95;;
36597;SDS011;22607;49.550;11.940;2023-03-01T02:06:36;18.97;;;8.87;;
36597;SDS011;22607;49.550;11.940;2023-03-01T02:09:08;21.55;;;10.20;;
36597;SDS011;22607;49.550;11.940;2023-03-01T02:11:40;22.10;;;9.93;;
36597;SDS011;22607;49.550;11.940;2023-03-01T02:14:07;21.13;;;9.90;;
36597;SDS011;22607;49.550;11.940;2023-03-01T02:16:35;21.37;;;10.10;;
36597;SDS011;22607;49.550;11.940;2023-03-01T02:19:02;20.90;;;9.30;;
36597;SDS011;22607;49.550;11.940;2023-03-01T02:21:47;22.30;;;9.73;;
36597;SDS011;22607;49.550;11.940;2023-03-01T02:24:36;22.90;;;9.27;;
36597;SDS011;22607;49.550;11.940;2023-03-01T02:27:46;22.77;;;10.33;;
36597;SDS011;22607;49.550;11.940;2023-03-01T02:30:18;21.03;;;9.70;;
36597;SDS011;22607;49.550;11.940;2023-03-01T02:32:46;20.83;;;9.37;;
36597;SDS011;22607;49.550;11.940;2023-03-01T02:35:15;23.00;;;9.73;;
36597;SDS011;22607;49.550;11.940;2023-03-01T02:37:44;21.30;;;9.60;;
36597;SDS011;22607;49.550;11.940;2023-03-01T02:40:12;21.52;;;10.10;;
36597;SDS011;22607;49.550;11.940;2023-03-01T02:42:46;24.70;;;9.43;;
36597;SDS011;22607;49.550;11.940;2023-03-01T02:45:16;22.47;;;10.57;;
36597;SDS011;22607;49.550;11.940;2023-03-01T02:47:44;20.27;;;9.73;;
36597;SDS011;22607;49.550;11.940;2023-03-01T02:55:27;20.70;;;9.27;;
36597;SDS011;22607;49.550;11.940;2023-03-01T02:57:54;23.80;;;10.57;;
36597;SDS011;22607;49.550;11.940;2023-03-01T03:00:30;22.90;;;10.45;;
36597;SDS011;22607;49.550;11.940;2023-03-01T03:03:01;24.30;;;10.18;;
36597;SDS011;22607;49.550;11.940;2023-03-01T03:05:29;24.50;;;11.60;;
36597;SDS011;22607;49.550;11.940;2023-03-01T03:08:00;24.85;;;11.55;;
36597;SDS011;22607;49.550;11.940;2023-03-01T03:10:30;23.35;;;10.45;;
36597;SDS011;22607;49.550;11.940;2023-03-01T03:13:02;24.42;;;11.27;;
36597;SDS011;22607;49.550;11.940;2023-03-01T03:15:31;22.17;;;10.20;;
36597;SDS011;22607;49.550;11.940;2023-03-01T03:17:58;25.15;;;10.70;;
36597;SDS011;22607;49.550;11.940;2023-03-01T03:20:29;20.73;;;9.95;;
36597;SDS011;22607;49.550;11.940;2023-03-01T03:22:56;20.38;;;10.23;;
36597;SDS011;22607;49.550;11.940;2023-03-01T03:25:31;22.83;;;10.57;;
36597;SDS011;22607;49.550;11.940;2023-03-01T03:27:57;23.57;;;11.53;;
36597;SDS011;22607;49.550;11.940;2023-03-01T03:30:31;21.90;;;10.27;;
36597;SDS011;22607;49.550;11.940;2023-03-01T03:32:58;24.50;;;10.43;;
36597;SDS011;22607;49.550;11.940;2023-03-01T03:35:26;21.10;;;10.77;;
36597;SDS011;22607;49.550;11.940;2023-03-01T03:38:14;25.20;;;10.52;;
36597;SDS011;22607;49.550;11.940;2023-03-01T03:43:18;25.20;;;9.98;;
36597;SDS011;22607;49.550;11.940;2023-03-01T03:45:47;20.27;;;10.30;;
36597;SDS011;22607;49.550;11.940;2023-03-01T03:48:15;23.65;;;10.65;;
36597;SDS011;22607;49.550;11.940;2023-03-01T03:50:46;23.65;;;11.73;;
36597;SDS011;22607;49.550;11.940;2023-03-01T03:53:15;26.67;;;11.05;;
36597;SDS011;22607;49.550;11.940;2023-03-01T03:55:42;26.15;;;12.00;;
36597;SDS011;22607;49.550;11.940;2023-03-01T03:58:09;25.37;;;10.87;;
36597;SDS011;22607;49.550;11.940;2023-03-01T04:00:39;22.03;;;10.60;;
36597;SDS011;22607;49.550;11.940;2023-03-01T04:03:08;27.42;;;12.27;;
36597;SDS011;22607;49.550;11.940;2023-03-01T04:05:36;23.93;;;11.20;;
36597;SDS011;22607;49.550;11.940;2023-03-01T04:08:04;20.83;;;9.43;;
36597;SDS011;22607;49.550;11.940;2023-03-01T04:10:38;26.38;;;14.07;;
36597;SDS011;22607;49.550;11.940;2023-03-01T04:13:08;21.90;;;11.20;;
36597;SDS011;22607;49.550;11.940;2023-03-01T04:15:38;22.77;;;10.82;;
36597;SDS011;22607;49.550;11.940;2023-03-01T04:18:14;23.93;;;11.50;;
36597;SDS011;22607;49.550;11.940;2023-03-01T04:20:42;21.07;;;9.77;;
36597;SDS011;22607;49.550;11.940;2023-03-01T04:23:12;24.58;;;9.68;;
36597;SDS011;22607;49.550;11.940;2023-03-01T04:25:52;22.92;;;9.48;;
36597;SDS011;22607;49.550;11.940;2023-03-01T04:30:55;21.70;;;9.73;;
36597;SDS011;22607;49.550;11.940;2023-03-01T04:33:24;22.07;;;9.90;;
36597;SDS011;22607;49.550;11.940;2023-03-01T04:35:51;22.50;;;10.90;;
36597;SDS011;22607;49.550;11.940;2023-03-01T04:38:18;23.73;;;9.60;;
36597;SDS011;22607;49.550;11.940;2023-03-01T04:40:46;25.93;;;12.60;;
36597;SDS011;22607;49.550;11.940;2023-03-01T04:43:12;30.02;;;14.10;;
36597;SDS011;22607;49.550;11.940;2023-03-01T04:45:40;32.90;;;14.10;;
36597;SDS011;22607;49.550;11.940;2023-03-01T04:48:07;29.00;;;12.57;;
36597;SDS011;22607;49.550;11.940;2023-03-01T04:50:34;25.83;;;11.67;;
36597;SDS011;22607;49.550;11.940;2023-03-01T04:53:01;32.50;;;14.30;;
36597;SDS011;22607;49.550;11.940;2023-03-01T04:55:28;23.97;;;10.67;;
36597;SDS011;22607;49.550;11.940;2023-03-01T04:57:55;28.37;;;12.50;;
36597;SDS011;22607;49.550;11.940;2023-03-01T05:00:22;28.33;;;13.10;;
36597;SDS011;22607;49.550;11.940;2023-03-01T05:05:36;27.90;;;10.97;;
36597;SDS011;22607;49.550;11.940;2023-03-01T05:08:06;24.10;;;11.40;;
36597;SDS011;22607;49.550;11.940;2023-03-01T05:10:34;24.50;;;11.20;;
36597;SDS011;22607;49.550;11.940;2023-03-01T05:13:03;22.60;;;11.30;;
36597;SDS011;22607;49.550;11.940;2023-03-01T05:15:31;22.17;;;10.30;;
36597;SDS011;22607;49.550;11.940;2023-03-01T05:17:58;25.43;;;11.70;;
36597;SDS011;22607;49.550;11.940;2023-03-01T05:20:26;24.00;;;11.93;;
36597;SDS011;22607;49.550;11.940;2023-03-01T05:22:55;23.47;;;10.60;;
36597;SDS011;22607;49.550;11.940;2023-03-01T05:25:25;25.60;;;11.37;;
36597;SDS011;22607;49.550;11.940;2023-03-01T05:27:52;23.87;;;11.57;;
36597;SDS011;22607;49.550;11.940;2023-03-01T05:30:19;22.63;;;10.80;;
36597;SDS011;22607;49.550;11.940;2023-03-01T05:32:46;22.63;;;10.37;;
36597;SDS011;22607;49.550;11.940;2023-03-01T05:35:15;24.47;;;11.50;;
36597;SDS011;22607;49.550;11.940;2023-03-01T05:37:44;24.03;;;10.27;;
36597;SDS011;22607;49.550;11.940;2023-03-01T05:40:13;23.63;;;10.93;;
36597;SDS011;22607;49.550;11.940;2023-03-01T05:42:43;26.08;;;11.02;;
36597;SDS011;22607;49.550;11.940;2023-03-01T05:45:11;24.00;;;10.50;;
36597;SDS011;22607;49.550;11.940;2023-03-01T05:47:39;22.87;;;10.77;;
36597;SDS011;22607;49.550;11.940;2023-03-01T05:50:11;22.83;;;10.50;;
36597;SDS011;22607;49.550;11.940;2023-03-01T05:52:39;27.03;;;11.50;;
36597;SDS011;22607;49.550;11.940;2023-03-01T05:55:06;22.80;;;10.20;;
36597;SDS011;22607;49.550;11.940;2023-03-01T05:57:33;23.13;;;10.87;;
36597;SDS011;22607;49.550;11.940;2023-03-01T05:59:59;24.50;;;10.87;;
36597;SDS011;22607;49.550;11.940;2023-03-01T06:02:27;25.17;;;10.90;;
36597;SDS011;22607;49.550;11.940;2023-03-01T06:04:53;27.60;;;13.17;;
36597;SDS011;22607;49.550;11.940;2023-03-01T06:07:20;25.47;;;11.10;;
36597;SDS011;22607;49.550;11.940;2023-03-01T06:09:46;26.43;;;11.33;;
36597;SDS011;22607;49.550;11.940;2023-03-01T06:12:13;24.37;;;11.70;;
36597;SDS011;22607;49.550;11.940;2023-03-01T06:14:39;29.47;;;13.23;;
36597;SDS011;22607;49.550;11.940;2023-03-01T06:17:06;28.50;;;12.80;;
36597;SDS011;22607;49.550;11.940;2023-03-01T06:19:32;24.47;;;12.30;;
36597;SDS011;22607;49.550;11.940;2023-03-01T06:21:59;29.27;;;13.57;;
36597;SDS011;22607;49.550;11.940;2023-03-01T06:24:26;28.50;;;14.00;;
36597;SDS011;22607;49.550;11.940;2023-03-01T06:26:54;27.33;;;10.93;;
36597;SDS011;22607;49.550;11.940;2023-03-01T06:29:22;25.90;;;11.97;;
36597;SDS011;22607;49.550;11.940;2023-03-01T06:31:48;31.80;;;14.00;;
36597;SDS011;22607;49.550;11.940;2023-03-01T06:34:15;30.43;;;14.50;;
36597;SDS011;22607;49.550;11.940;2023-03-01T06:36:41;31.48;;;15.77;;
36597;SDS011;22607;49.550;11.940;2023-03-01T06:39:08;28.33;;;13.13;;
36597;SDS011;22607;49.550;11.940;2023-03-01T06:41:35;33.85;;;15.50;;
36597;SDS011;22607;49.550;11.940;2023-03-01T06:44:01;31.90;;;14.20;;
36597;SDS011;22607;49.550;11.940;2023-03-01T06:46:29;39.03;;;17.95;;
36597;SDS011;22607;49.550;11.940;2023-03-01T06:48:57;29.15;;;13.73;;
36597;SDS011;22607;49.550;11.940;2023-03-01T06:51:23;36.47;;;16.67;;
36597;SDS011;22607;49.550;11.940;2023-03-01T06:53:51;34.67;;;16.20;;
36597;SDS011;22607;49.550;11.940;2023-03-01T06:56:17;36.50;;;17.42;;
36597;SDS011;22607;49.550;11.940;2023-03-01T06:58:44;38.42;;;17.25;;
36597;SDS011;22607;49.550;11.940;2023-03-01T07:01:10;35.92;;;15.75;;
36597;SDS011;22607;49.550;11.940;2023-03-01T07:03:39;40.05;;;16.63;;
36597;SDS011;22607;49.550;11.940;2023-03-01T07:06:05;35.88;;;16.65;;
36597;SDS011;22607;49.550;11.940;2023-03-01T07:08:32;38.63;;;18.55;;
36597;SDS011;22607;49.550;11.940;2023-03-01T07:10:58;37.95;;;18.10;;
36597;SDS011;22607;49.550;11.940;2023-03-01T07:13:25;38.13;;;16.45;;
36597;SDS011;22607;49.550;11.940;2023-03-01T07:15:51;31.38;;;14.95;;
36597;SDS011;22607;49.550;11.940;2023-03-01T07:18:18;38.20;;;18.52;;
36597;SDS011;22607;49.550;11.940;2023-03-01T07:20:44;43.55;;;17.88;;
36597;SDS011;22607;49.550;11.940;2023-03-01T07:23:11;45.03;;;20.65;;
36597;SDS011;22607;49.550;11.940;2023-03-01T07:25:39;30.73;;;16.00;;
36597;SDS011;22607;49.550;11.940;2023-03-01T07:28:06;45.85;;;21.35;;
36597;SDS011;22607;49.550;11.940;2023-03-01T07:30:32;36.60;;;18.02;;
36597;SDS011;22607;49.550;11.940;2023-03-01T07:32:59;32.50;;;16.23;;
36597;SDS011;22607;49.550;11.940;2023-03-01T07:35:28;37.95;;;17.88;;
36597;SDS011;22607;49.550;11.940;2023-03-01T07:37:54;35.55;;;16.55;;
36597;SDS011;22607;49.550;11.940;2023-03-01T07:40:21;35.45;;;15.65;;
36597;SDS011;22607;49.550;11.940;2023-03-01T07:42:47;25.52;;;13.75;;
36597;SDS011;22607;49.550;11.940;2023-03-01T07:45:14;33.28;;;15.52;;
36597;SDS011;22607;49.550;11.940;2023-03-01T07:47:40;28.42;;;15.30;;
36597;SDS011;22607;49.550;11.940;2023-03-01T07:50:07;25.88;;;12.93;;
36597;SDS011;22607;49.550;11.940;2023-03-01T07:52:35;25.77;;;14.02;;
36597;SDS011;22607;49.550;11.940;2023-03-01T07:55:02;23.00;;;11.60;;
36597;SDS011;22607;49.550;11.940;2023-03-01T07:57:28;24.38;;;13.52;;
36597;SDS011;22607;49.550;11.940;2023-03-01T07:59:57;26.65;;;13.00;;
36597;SDS011;22607;49.550;11.940;2023-03-01T08:02:23;31.08;;;15.85;;
36597;SDS011;22607;49.550;11.940;2023-03-01T08:04:51;30.98;;;15.85;;
36597;SDS011;22607;49.550;11.940;2023-03-01T08:07:17;29.60;;;14.40;;
36597;SDS011;22607;49.550;11.940;2023-03-01T08:09:44;28.42;;;15.60;;
36597;SDS011;22607;49.550;11.940;2023-03-01T08:12:11;28.95;;;13.98;;
36597;SDS011;22607;49.550;11.940;2023-03-01T08:14:37;31.48;;;15.73;;
36597;SDS011;22607;49.550;11.940;2023-03-01T08:17:04;28.02;;;15.48;;
36597;SDS011;22607;49.550;11.940;2023-03-01T08:19:31;30.45;;;15.40;;
36597;SDS011;22607;49.550;11.940;2023-03-01T08:21:59;32.10;;;18.20;;
36597;SDS011;22607;49.550;11.940;2023-03-01T08:24:26;29.08;;;16.35;;
36597;SDS011;22607;49.550;11.940;2023-03-01T08:26:52;29.38;;;16.13;;
36597;SDS011;22607;49.550;11.940;2023-03-01T08:29:19;32.15;;;18.17;;
36597;SDS011;22607;49.550;11.940;2023-03-01T08:31:46;27.55;;;14.50;;
36597;SDS011;22607;49.550;11.940;2023-03-01T08:34:14;28.25;;;15.82;;
36597;SDS011;22607;49.550;11.940;2023-03-01T08:36:43;30.08;;;15.75;;
36597;SDS011;22607;49.550;11.940;2023-03-01T08:39:12;29.60;;;15.25;;
36597;SDS011;22607;49.550;11.940;2023-03-01T08:41:40;33.22;;;16.33;;
36597;SDS011;22607;49.550;11.940;2023-03-01T08:44:10;29.60;;;17.15;;
36597;SDS011;22607;49.550;11.940;2023-03-01T08:46:38;29.83;;;16.45;;
36597;SDS011;22607;49.550;11.940;2023-03-01T08:49:07;28.13;;;16.52;;
36597;SDS011;22607;49.550;11.940;2023-03-01T08:51:38;29.85;;;16.20;;
36597;SDS011;22607;49.550;11.940;2023-03-01T08:54:05;29.45;;;16.55;;
36597;SDS011;22607;49.550;11.940;2023-03-01T08:56:36;29.00;;;14.70;;
36597;SDS011;22607;49.550;11.940;2023-03-01T08:59:03;31.27;;;16.02;;
36597;SDS011;22607;49.550;11.940;2023-03-01T09:01:30;33.13;;;15.43;;
36597;SDS011;22607;49.550;11.940;2023-03-01T09:03:57;37.40;;;20.02;;
36597;SDS011;22607;49.550;11.940;2023-03-01T09:06:23;36.70;;;19.80;;
36597;SDS011;22607;49.550;11.940;2023-03-01T09:08:50;38.38;;;19.55;;
36597;SDS011;22607;49.550;11.940;2023-03-01T09:11:18;85.88;;;33.80;;
36597;SDS011;22607;49.550;11.940;2023-03-01T09:13:47;34.17;;;18.10;;
36597;SDS011;22607;49.550;11.940;2023-03-01T09:16:16;39.55;;;20.45;;
36597;SDS011;22607;49.550;11.940;2023-03-01T09:18:44;33.25;;;17.17;;
36597;SDS011;22607;49.550;11.940;2023-03-01T09:21:15;35.30;;;18.05;;
36597;SDS011;22607;49.550;11.940;2023-03-01T09:23:50;30.48;;;16.73;;
36597;SDS011;22607;49.550;11.940;2023-03-01T09:26:18;27.25;;;14.95;;
36597;SDS011;22607;49.550;11.940;2023-03-01T09:28:47;27.90;;;15.50;;
36597;SDS011;22607;49.550;11.940;2023-03-01T09:31:16;27.85;;;14.55;;
36597;SDS011;22607;49.550;11.940;2023-03-01T09:33:45;27.00;;;15.88;;
36597;SDS011;22607;49.550;11.940;2023-03-01T09:36:15;31.23;;;17.88;;
36597;SDS011;22607;49.550;11.940;2023-03-01T09:38:43;27.10;;;16.35;;
36597;SDS011;22607;49.550;11.940;2023-03-01T09:44:11;27.55;;;15.43;;
36597;SDS011;22607;49.550;11.940;2023-03-01T09:46:44;27.38;;;15.18;;
36597;SDS011;22607;49.550;11.940;2023-03-01T09:49:13;27.45;;;14.88;;
36597;SDS011;22607;49.550;11.940;2023-03-01T09:52:12;26.83;;;14.88;;
36597;SDS011;22607;49.550;11.940;2023-03-01T09:54:54;26.58;;;13.77;;
36597;SDS011;22607;49.550;11.940;2023-03-01T10:03:02;20.50;;;11.95;;
36597;SDS011;22607;49.550;11.940;2023-03-01T10:05:44;27.63;;;13.27;;
36597;SDS011;22607;49.550;11.940;2023-03-01T10:08:48;19.80;;;12.10;;
36597;SDS011;22607;49.550;11.940;2023-03-01T10:11:25;21.40;;;11.82;;
36597;SDS011;22607;49.550;11.940;2023-03-01T10:16:47;22.35;;;12.60;;
36597;SDS011;22607;49.550;11.940;2023-03-01T10:19:27;19.52;;;11.65;;
36597;SDS011;22607;49.550;11.940;2023-03-01T10:22:02;20.92;;;11.85;;
36597;SDS011;22607;49.550;11.940;2023-03-01T10:24:34;19.50;;;12.55;;
36597;SDS011;22607;49.550;11.940;2023-03-01T10:27:07;30.70;;;17.17;;
36597;SDS011;22607;49.550;11.940;2023-03-01T10:30:05;22.73;;;12.75;;
36597;SDS011;22607;49.550;11.940;2023-03-01T10:32:45;21.15;;;13.00;;
36597;SDS011;22607;49.550;11.940;2023-03-01T10:35:19;24.13;;;13.27;;
36597;SDS011;22607;49.550;11.940;2023-03-01T10:40:36;20.35;;;11.70;;
36597;SDS011;22607;49.550;11.940;2023-03-01T10:43:16;19.52;;;11.25;;
36597;SDS011;22607;49.550;11.940;2023-03-01T10:45:43;19.00;;;11.75;;
36597;SDS011;22607;49.550;11.940;2023-03-01T10:50:51;19.95;;;11.32;;
36597;SDS011;22607;49.550;11.940;2023-03-01T10:58:30;21.02;;;11.60;;
36597;SDS011;22607;49.550;11.940;2023-03-01T11:00:58;21.83;;;12.93;;
36597;SDS011;22607;49.550;11.940;2023-03-01T11:03:31;19.73;;;11.82;;
36597;SDS011;22607;49.550;11.940;2023-03-01T11:06:01;21.65;;;11.63;;
36597;SDS011;22607;49.550;11.940;2023-03-01T11:13:57;21.48;;;12.50;;
36597;SDS011;22607;49.550;11.940;2023-03-01T11:16:27;20.40;;;11.30;;
36597;SDS011;22607;49.550;11.940;2023-03-01T11:21:41;18.70;;;10.27;;
36597;SDS011;22607;49.550;11.940;2023-03-01T11:24:10;18.95;;;11.02;;
36597;SDS011;22607;49.550;11.940;2023-03-01T11:26:40;20.85;;;11.07;;
36597;SDS011;22607;49.550;11.940;2023-03-01T11:29:13;18.20;;;9.25;;
36597;SDS011;22607;49.550;11.940;2023-03-01T11:31:48;19.65;;;10.05;;
36597;SDS011;22607;49.550;11.940;2023-03-01T11:34:35;21.25;;;10.75;;
36597;SDS011;22607;49.550;11.940;2023-03-01T11:37:12;17.60;;;11.13;;
36597;SDS011;22607;49.550;11.940;2023-03-01T11:42:54;21.42;;;12.80;;
36597;SDS011;22607;49.550;11.940;2023-03-01T11:45:33;18.48;;;11.02;;
36597;SDS011;22607;49.550;11.940;2023-03-01T11:48:17;18.60;;;10.82;;
36597;SDS011;22607;49.550;11.940;2023-03-01T11:51:26;19.08;;;11.65;;
36597;SDS011;22607;49.550;11.940;2023-03-01T11:54:57;19.98;;;11.40;;
36597;SDS011;22607;49.550;11.940;2023-03-01T12:02:37;19.90;;;11.32;;
36597;SDS011;22607;49.550;11.940;2023-03-01T12:20:06;20.88;;;10.45;;
36597;SDS011;22607;49.550;11.940;2023-03-01T12:22:26;21.33;;;13.02;;
36597;SDS011;22607;49.550;11.940;2023-03-01T12:25:18;23.60;;;13.70;;
36597;SDS011;22607;49.550;11.940;2023-03-01T12:30:32;20.92;;;12.40;;
36597;SDS011;22607;49.550;11.940;2023-03-01T12:33:26;21.92;;;11.38;;
36597;SDS011;22607;49.550;11.940;2023-03-01T12:36:12;20.77;;;11.82;;
36597;SDS011;22607;49.550;11.940;2023-03-01T12:49:49;17.20;;;10.52;;
36597;SDS011;22607;49.550;11.940;2023-03-01T12:55:06;18.85;;;11.15;;
36597;SDS011;22607;49.550;11.940;2023-03-01T12:57:50;18.00;;;9.82;;
36597;SDS011;22607;49.550;11.940;2023-03-01T13:00:52;18.65;;;10.52;;
36597;SDS011;22607;49.550;11.940;2023-03-01T13:06:25;25.05;;;15.52;;
36597;SDS011;22607;49.550;11.940;2023-03-01T13:09:23;24.35;;;14.60;;
36597;SDS011;22607;49.550;11.940;2023-03-01T13:16:54;17.95;;;10.70;;
36597;SDS011;22607;49.550;11.940;2023-03-01T13:19:24;18.88;;;11.05;;
36597;SDS011;22607;49.550;11.940;2023-03-01T13:24:43;18.55;;;11.30;;
36597;SDS011;22607;49.550;11.940;2023-03-01T13:27:10;19.80;;;10.00;;
36597;SDS011;22607;49.550;11.940;2023-03-01T13:29:45;19.70;;;14.07;;
36597;SDS011;22607;49.550;11.940;2023-03-01T13:32:24;19.15;;;9.90;;
36597;SDS011;22607;49.550;11.940;2023-03-01T13:37:44;21.48;;;10.43;;
36597;SDS011;22607;49.550;11.940;2023-03-01T13:42:43;17.35;;;9.93;;
36597;SDS011;22607;49.550;11.940;2023-03-01T13:48:20;18.02;;;9.35;;
36597;SDS011;22607;49.550;11.940;2023-03-01T13:50:52;17.13;;;9.38;;
36597;SDS011;22607;49.550;11.940;2023-03-01T13:53:22;16.63;;;9.30;;
36597;SDS011;22607;49.550;11.940;2023-03-01T13:55:55;17.50;;;9.63;;
36597;SDS011;22607;49.550;11.940;2023-03-01T13:58:31;17.88;;;10.10;;
36597;SDS011;22607;49.550;11.940;2023-03-01T14:01:03;18.63;;;10.43;;
36597;SDS011;22607;49.550;11.940;2023-03-01T14:03:32;19.35;;;11.48;;
36597;SDS011;22607;49.550;11.940;2023-03-01T14:06:14;18.23;;;10.23;;
36597;SDS011;22607;49.550;11.940;2023-03-01T14:08:46;19.38;;;10.98;;
36597;SDS011;22607;49.550;11.940;2023-03-01T14:16:40;17.63;;;10.18;;
36597;SDS011;22607;49.550;11.940;2023-03-01T14:19:25;20.23;;;11.25;;
36597;SDS011;22607;49.550;11.940;2023-03-01T14:24:31;17.27;;;10.30;;
36597;SDS011;22607;49.550;11.940;2023-03-01T14:27:03;18.88;;;10.55;;
36597;SDS011;22607;49.550;11.940;2023-03-01T14:29:34;20.73;;;11.98;;
36597;SDS011;22607;49.550;11.940;2023-03-01T14:32:15;21.45;;;12.27;;
36597;SDS011;22607;49.550;11.940;2023-03-01T14:34:48;18.40;;;10.90;;
36597;SDS011;22607;49.550;11.940;2023-03-01T14:37:26;21.60;;;13.27;;
36597;SDS011;22607;49.550;11.940;2023-03-01T14:39:59;18.85;;;10.98;;
36597;SDS011;22607;49.550;11.940;2023-03-01T14:42:35;19.27;;;11.60;;
36597;SDS011;22607;49.550;11.940;2023-03-01T14:45:03;19.85;;;11.75;;
36597;SDS011;22607;49.550;11.940;2023-03-01T14:47:34;18.55;;;11.18;;
36597;SDS011;22607;49.550;11.940;2023-03-01T14:52:33;21.70;;;12.27;;
36597;SDS011;22607;49.550;11.940;2023-03-01T14:55:07;19.88;;;10.52;;
36597;SDS011;22607;49.550;11.940;2023-03-01T14:57:43;22.08;;;13.27;;
36597;SDS011;22607;49.550;11.940;2023-03-01T15:00:15;20.25;;;11.93;;
36597;SDS011;22607;49.550;11.940;2023-03-01T15:02:51;22.67;;;11.27;;
36597;SDS011;22607;49.550;11.940;2023-03-01T15:05:38;19.07;;;10.53;;
36597;SDS011;22607;49.550;11.940;2023-03-01T15:10:56;17.95;;;10.07;;
36597;SDS011;22607;49.550;11.940;2023-03-01T15:13:25;18.80;;;11.25;;
36597;SDS011;22607;49.550;11.940;2023-03-01T15:16:01;18.60;;;11.07;;
36597;SDS011;22607;49.550;11.940;2023-03-01T15:18:43;21.40;;;12.63;;
36597;SDS011;22607;49.550;11.940;2023-03-01T15:21:46;20.33;;;11.85;;
36597;SDS011;22607;49.550;11.940;2023-03-01T15:26:50;20.65;;;11.05;;
36597;SDS011;22607;49.550;11.940;2023-03-01T15:29:22;21.45;;;12.13;;
36597;SDS011;22607;49.550;11.940;2023-03-01T15:32:00;22.05;;;11.70;;
36597;SDS011;22607;49.550;11.940;2023-03-01T15:34:31;18.38;;;10.75;;
36597;SDS011;22607;49.550;11.940;2023-03-01T15:37:00;19.50;;;11.13;;
36597;SDS011;22607;49.550;11.940;2023-03-01T15:42:04;19.70;;;12.65;;
36597;SDS011;22607;49.550;11.940;2023-03-01T15:45:06;20.38;;;10.90;;
36597;SDS011;22607;49.550;11.940;2023-03-01T15:47:47;20.00;;;10.18;;
36597;SDS011;22607;49.550;11.940;2023-03-01T15:50:20;21.02;;;11.05;;
36597;SDS011;22607;49.550;11.940;2023-03-01T15:52:49;19.25;;;10.15;;
36597;SDS011;22607;49.550;11.940;2023-03-01T15:55:21;21.27;;;10.55;;
36597;SDS011;22607;49.550;11.940;2023-03-01T15:57:49;19.65;;;10.38;;
36597;SDS011;22607;49.550;11.940;2023-03-01T16:00:16;21.88;;;11.27;;
36597;SDS011;22607;49.550;11.940;2023-03-01T16:02:48;23.02;;;12.60;;
36597;SDS011;22607;49.550;11.940;2023-03-01T16:05:19;20.75;;;11.38;;
36597;SDS011;22607;49.550;11.940;2023-03-01T16:07:50;18.30;;;10.57;;
36597;SDS011;22607;49.550;11.940;2023-03-01T16:10:18;22.80;;;10.73;;
36597;SDS011;22607;49.550;11.940;2023-03-01T16:12:46;18.13;;;9.98;;
36597;SDS011;22607;49.550;11.940;2023-03-01T16:15:15;20.20;;;10.98;;
36597;SDS011;22607;49.550;11.940;2023-03-01T16:17:44;18.50;;;10.07;;
36597;SDS011;22607;49.550;11.940;2023-03-01T16:20:11;40.17;;;19.92;;
36597;SDS011;22607;49.550;11.940;2023-03-01T16:22:53;19.40;;;10.75;;
36597;SDS011;22607;49.550;11.940;2023-03-01T16:25:20;23.42;;;11.07;;
36597;SDS011;22607;49.550;11.940;2023-03-01T16:27:48;18.23;;;10.43;;
36597;SDS011;22607;49.550;11.940;2023-03-01T16:30:16;19.25;;;11.13;;
36597;SDS011;22607;49.550;11.940;2023-03-01T16:32:46;18.08;;;10.70;;
36597;SDS011;22607;49.550;11.940;2023-03-01T16:35:15;19.33;;;10.10;;
36597;SDS011;22607;49.550;11.940;2023-03-01T16:37:43;19.42;;;10.35;;
36597;SDS011;22607;49.550;11.940;2023-03-01T16:40:21;22.10;;;10.95;;